createdAt,value
2024-04-11T00:00:25.324Z,99.99
2024-04-11T00:01:25.900Z,99.99
2024-04-11T00:02:25.430Z,99.99
2024-04-11T00:03:25.446Z,99.99
2024-04-11T00:04:25.521Z,99.99
2024-04-11T00:05:25.324Z,99.99
2024-04-11T00:06:25.263Z,99.99
2024-04-11T00:07:25.245Z,99.99
2024-04-11T00:08:25.291Z,99.99
2024-04-11T00:09:25.223Z,99.99
2024-04-11T00:10:25.224Z,99.99
2024-04-11T00:11:25.358Z,99.99
2024-04-11T00:12:25.291Z,99.99
2024-04-11T00:13:25.181Z,99.99
2024-04-11T00:14:25.207Z,99.99
2024-04-11T00:15:25.189Z,99.99
2024-04-11T00:16:25.191Z,99.99
2024-04-11T00:17:25.295Z,99.99
2024-04-11T00:18:25.285Z,99.99
2024-04-11T00:19:25.136Z,99.99
2024-04-11T00:20:25.199Z,99.99
2024-04-11T00:21:25.113Z,99.99
2024-04-11T00:22:25.093Z,99.99
2024-04-11T00:23:25.135Z,99.99
2024-04-11T00:24:25.067Z,99.99
2024-04-11T00:25:25.054Z,99.99
2024-04-11T00:26:25.085Z,99.99
2024-04-11T00:27:25.037Z,99.99
2024-04-11T00:28:25.020Z,99.99
2024-04-11T00:29:25.086Z,99.99
2024-04-11T00:30:25.012Z,99.99
2024-04-11T00:31:25.000Z,99.99
2024-04-11T00:32:25.188Z,99.99
2024-04-11T00:33:25.141Z,99.99
2024-04-11T00:34:25.456Z,99.99
2024-04-11T00:35:25.078Z,99.99
2024-04-11T00:36:24.957Z,99.99
2024-04-11T00:37:24.922Z,99.99
2024-04-11T00:38:25.123Z,99.99
2024-04-11T00:39:24.899Z,99.99
2024-04-11T00:40:24.888Z,99.99
2024-04-11T00:41:24.960Z,99.99
2024-04-11T00:42:24.873Z,99.99
2024-04-11T00:43:24.889Z,99.99
2024-04-11T00:44:24.890Z,99.99
2024-04-11T00:45:24.840Z,99.99
2024-04-11T00:46:24.841Z,99.99
2024-04-11T00:47:25.061Z,99.99
2024-04-11T00:48:24.934Z,99.99
2024-04-11T00:49:24.951Z,99.99
2024-04-11T00:50:24.806Z,99.99
2024-04-11T00:51:24.804Z,99.99
2024-04-11T00:52:24.768Z,99.99
2024-04-11T00:53:24.831Z,99.99
2024-04-11T00:54:24.734Z,99.99
2024-04-11T00:55:24.723Z,99.99
2024-04-11T00:56:24.790Z,99.99
2024-04-11T00:57:24.700Z,99.99
2024-04-11T00:58:24.708Z,99.99
2024-04-11T00:59:24.764Z,99.99
2024-04-11T01:00:24.670Z,99.99
2024-04-11T01:01:24.663Z,99.99
2024-04-11T01:02:24.742Z,99.99
2024-04-11T01:03:24.706Z,99.99
2024-04-11T01:04:24.659Z,99.99
2024-04-11T01:05:24.697Z,99.99
2024-04-11T01:06:24.616Z,99.99
2024-04-11T01:07:24.629Z,99.99
2024-04-11T01:08:24.620Z,99.99
2024-04-11T01:09:46.635Z,99.99
2024-04-11T01:10:45.645Z,99.99
2024-04-11T01:11:24.652Z,99.99
2024-04-11T01:12:24.562Z,99.99
2024-04-11T01:13:24.530Z,99.99
2024-04-11T01:14:24.558Z,99.99
2024-04-11T01:15:24.610Z,99.99
2024-04-11T01:16:24.548Z,99.99
2024-04-11T01:17:24.640Z,99.99
2024-04-11T01:18:24.643Z,99.99
2024-04-11T01:19:24.474Z,99.99
2024-04-11T01:20:24.485Z,99.99
2024-04-11T01:21:24.457Z,99.99
2024-04-11T01:22:24.448Z,99.99
2024-04-11T01:23:24.520Z,99.99
2024-04-11T01:24:24.409Z,99.99
2024-04-11T01:25:24.418Z,99.99
2024-04-11T01:26:24.402Z,99.99
2024-04-11T01:27:24.388Z,99.99
2024-04-11T01:28:24.408Z,99.99
2024-04-11T01:29:24.418Z,99.99
2024-04-11T01:30:24.343Z,99.99
2024-04-11T01:31:24.338Z,99.99
2024-04-11T01:32:24.444Z,99.99
2024-04-11T01:33:24.475Z,99.99
2024-04-11T01:34:24.517Z,99.99
2024-04-11T01:35:24.335Z,99.99
2024-04-11T01:36:24.278Z,99.99
2024-04-11T01:37:24.271Z,99.99
2024-04-11T01:38:24.275Z,99.99
2024-04-11T01:39:24.278Z,99.99
2024-04-11T01:40:24.261Z,99.99
2024-04-11T01:41:24.262Z,99.99
2024-04-11T01:42:24.221Z,99.99
2024-04-11T01:43:24.205Z,99.99
2024-04-11T01:44:24.256Z,99.99
2024-04-11T01:45:24.186Z,99.99
2024-04-11T01:46:24.421Z,99.99
2024-04-11T01:47:24.217Z,99.99
2024-04-11T01:48:24.260Z,99.99
2024-04-11T01:49:24.138Z,99.99
2024-04-11T01:50:24.203Z,99.99
2024-04-11T01:51:24.118Z,99.99
2024-04-11T01:52:24.163Z,99.99
2024-04-11T01:53:24.120Z,99.99
2024-04-11T01:54:24.083Z,99.99
2024-04-11T01:55:24.092Z,99.99
2024-04-11T01:56:24.084Z,99.99
2024-04-11T01:57:24.060Z,99.99
2024-04-11T01:58:24.078Z,99.99
2024-04-11T01:59:24.060Z,99.99
2024-04-11T02:00:24.017Z,99.99
2024-04-11T02:01:24.059Z,99.99
2024-04-11T02:02:24.164Z,99.99
2024-04-11T02:03:24.114Z,99.99
2024-04-11T02:04:24.023Z,99.99
2024-04-11T02:05:24.014Z,99.99
2024-04-11T02:06:23.952Z,99.99
2024-04-11T02:07:23.954Z,99.99
2024-04-11T02:08:23.980Z,99.99
2024-04-11T02:09:23.919Z,99.99
2024-04-11T02:10:23.942Z,99.99
2024-04-11T02:11:24.014Z,99.99
2024-04-11T02:12:23.908Z,99.99
2024-04-11T02:13:23.891Z,99.99
2024-04-11T02:14:23.921Z,99.99
2024-04-11T02:15:23.861Z,99.99
2024-04-11T02:16:23.905Z,99.99
2024-04-11T02:17:23.857Z,99.99
2024-04-11T02:18:23.927Z,99.99
2024-04-11T02:19:23.826Z,99.99
2024-04-11T02:20:23.832Z,99.99
2024-04-11T02:21:23.793Z,99.99
2024-04-11T02:22:23.798Z,99.99
2024-04-11T02:23:23.800Z,99.99
2024-04-11T02:24:23.884Z,99.99
2024-04-11T02:25:23.748Z,99.99
2024-04-11T02:26:23.766Z,99.99
2024-04-11T02:27:23.761Z,99.99
2024-04-11T02:28:23.736Z,99.99
2024-04-11T02:29:23.726Z,99.99
2024-04-11T02:30:23.694Z,99.99
2024-04-11T02:31:23.696Z,99.99
2024-04-11T02:32:23.782Z,99.99
2024-04-11T02:33:23.878Z,99.99
2024-04-11T02:34:23.925Z,99.99
2024-04-11T02:35:23.702Z,99.99
2024-04-11T02:36:23.654Z,99.99
2024-04-11T02:37:23.629Z,99.99
2024-04-11T02:38:23.625Z,99.99
2024-04-11T02:39:23.593Z,99.99
2024-04-11T02:40:23.615Z,99.99
2024-04-11T02:41:23.682Z,99.99
2024-04-11T02:42:23.575Z,99.99
2024-04-11T02:43:23.589Z,99.99
2024-04-11T02:44:23.585Z,99.99
2024-04-11T02:45:23.543Z,99.99
2024-04-11T02:46:23.546Z,99.99
2024-04-11T02:47:23.642Z,99.99
2024-04-11T02:48:23.625Z,99.99
2024-04-11T02:49:23.530Z,99.99
2024-04-11T02:50:23.513Z,99.99
2024-04-11T02:51:23.481Z,99.99
2024-04-11T02:52:23.479Z,99.99
2024-04-11T02:53:23.483Z,99.99
2024-04-11T02:54:23.435Z,99.99
2024-04-11T02:55:23.425Z,99.99
2024-04-11T02:56:23.470Z,99.99
2024-04-11T02:57:23.404Z,99.99
2024-04-11T02:58:23.445Z,99.99
2024-04-11T02:59:23.421Z,99.99
2024-04-11T03:00:23.380Z,99.99
2024-04-11T03:01:23.361Z,99.99
2024-04-11T03:02:23.397Z,99.99
2024-04-11T03:03:23.528Z,99.99
2024-04-11T03:04:23.562Z,99.99
2024-04-11T03:05:23.373Z,99.99
2024-04-11T03:06:23.309Z,99.99
2024-04-11T03:07:23.308Z,99.99
2024-04-11T03:08:23.311Z,99.99
2024-04-11T03:09:23.440Z,99.99
2024-04-11T03:10:23.269Z,99.99
2024-04-11T03:11:23.285Z,99.99
2024-04-11T03:12:23.308Z,99.99
2024-04-11T03:13:23.228Z,99.99
2024-04-11T03:14:23.315Z,99.99
2024-04-11T03:15:23.250Z,99.99
2024-04-11T03:16:23.231Z,99.99
2024-04-11T03:17:23.265Z,99.99
2024-04-11T03:18:23.291Z,99.99
2024-04-11T03:19:23.164Z,99.99
2024-04-11T03:20:23.190Z,99.99
2024-04-11T03:21:23.176Z,99.99
2024-04-11T03:22:23.133Z,99.99
2024-04-11T03:23:23.131Z,99.99
2024-04-11T03:24:23.113Z,99.99
2024-04-11T03:25:23.100Z,99.99
2024-04-11T03:26:23.148Z,99.99
2024-04-11T03:27:23.109Z,99.99
2024-04-11T03:28:23.064Z,99.99
2024-04-11T03:29:23.118Z,99.99
2024-04-11T03:30:23.050Z,99.99
2024-04-11T03:31:23.043Z,99.99
2024-04-11T03:32:23.128Z,99.99
2024-04-11T03:33:23.145Z,99.99
2024-04-11T03:34:23.126Z,99.99
2024-04-11T03:35:23.070Z,99.99
2024-04-11T03:36:22.984Z,99.99
2024-04-11T03:37:22.971Z,99.99
2024-04-11T03:38:22.998Z,99.99
2024-04-11T03:39:23.035Z,99.99
2024-04-11T03:40:22.933Z,99.99
2024-04-11T03:41:23.069Z,99.99
2024-04-11T03:42:22.917Z,99.99
2024-04-11T03:43:22.918Z,99.99
2024-04-11T03:44:22.955Z,99.99
2024-04-11T03:45:22.975Z,99.99
2024-04-11T03:46:23.058Z,99.99
2024-04-11T03:47:23.278Z,99.99
2024-04-11T03:48:22.979Z,99.99
2024-04-11T03:49:22.867Z,99.99
2024-04-11T03:50:22.887Z,99.99
2024-04-11T03:51:22.841Z,99.99
2024-04-11T03:52:22.809Z,99.99
2024-04-11T03:53:22.820Z,99.99
2024-04-11T03:54:22.796Z,99.99
2024-04-11T03:55:22.808Z,99.99
2024-04-11T03:56:22.799Z,99.99
2024-04-11T03:57:22.830Z,99.99
2024-04-11T03:58:22.749Z,99.99
2024-04-11T03:59:22.772Z,99.99
2024-04-11T04:00:22.728Z,99.99
2024-04-11T04:01:22.769Z,99.99
2024-04-11T04:02:22.801Z,99.99
2024-04-11T04:03:22.931Z,99.99
2024-04-11T04:04:22.705Z,99.99
2024-04-11T04:05:22.708Z,99.99
2024-04-11T04:06:22.713Z,99.99
2024-04-11T04:07:22.645Z,99.99
2024-04-11T04:08:22.659Z,99.99
2024-04-11T04:09:22.681Z,99.99
2024-04-11T04:10:22.622Z,99.99
2024-04-11T04:11:22.657Z,99.99
2024-04-11T04:12:22.653Z,99.99
2024-04-11T04:13:22.585Z,99.99
2024-04-11T04:14:22.662Z,99.99
2024-04-11T04:15:22.613Z,99.99
2024-04-11T04:16:22.631Z,99.99
2024-04-11T04:17:22.614Z,99.99
2024-04-11T04:18:22.580Z,99.99
2024-04-11T04:19:22.531Z,99.99
2024-04-11T04:20:22.542Z,99.99
2024-04-11T04:21:22.648Z,99.99
2024-04-11T04:22:22.498Z,99.99
2024-04-11T04:23:22.503Z,99.99
2024-04-11T04:24:22.468Z,99.99
2024-04-11T04:25:22.461Z,99.99
2024-04-11T04:26:22.494Z,99.99
2024-04-11T04:27:22.465Z,99.99
2024-04-11T04:28:22.419Z,99.99
2024-04-11T04:29:22.442Z,99.99
2024-04-11T04:30:22.417Z,99.99
2024-04-11T04:31:22.403Z,99.99
2024-04-11T04:32:22.503Z,99.99
2024-04-11T04:33:22.504Z,99.99
2024-04-11T04:34:22.528Z,99.99
2024-04-11T04:35:22.414Z,99.99
2024-04-11T04:36:22.349Z,99.99
2024-04-11T04:37:22.324Z,99.99
2024-04-11T04:38:22.335Z,99.99
2024-04-11T04:39:22.352Z,99.99
2024-04-11T04:40:22.288Z,99.99
2024-04-11T04:41:22.361Z,99.99
2024-04-11T04:42:22.308Z,99.99
2024-04-11T04:43:22.261Z,99.99
2024-04-11T04:44:22.334Z,99.99
2024-04-11T04:45:22.266Z,99.99
2024-04-11T04:46:22.227Z,99.99
2024-04-11T04:47:22.282Z,99.99
2024-04-11T04:48:22.409Z,99.99
2024-04-11T04:49:22.432Z,99.99
2024-04-11T04:50:22.229Z,99.99
2024-04-11T04:51:22.227Z,99.99
2024-04-11T04:52:22.162Z,99.99
2024-04-11T04:53:22.268Z,99.99
2024-04-11T04:54:22.161Z,99.99
2024-04-11T04:55:22.132Z,99.99
2024-04-11T04:56:22.200Z,99.99
2024-04-11T04:57:22.109Z,99.99
2024-04-11T04:58:22.114Z,99.99
2024-04-11T04:59:22.084Z,99.99
2024-04-11T05:00:22.074Z,99.99
2024-04-11T05:01:22.079Z,99.99
2024-04-11T05:02:22.216Z,99.99
2024-04-11T05:03:22.303Z,99.99
2024-04-11T05:04:22.145Z,99.99
2024-04-11T05:05:22.090Z,99.99
2024-04-11T05:06:22.012Z,99.99
2024-04-11T05:07:22.026Z,99.99
2024-04-11T05:08:22.039Z,99.99
2024-04-11T05:09:21.984Z,99.99
2024-04-11T05:10:21.976Z,99.99
2024-04-11T05:11:22.049Z,99.99
2024-04-11T05:12:22.047Z,99.99
2024-04-11T05:13:21.954Z,99.99
2024-04-11T05:14:21.987Z,99.99
2024-04-11T05:15:21.917Z,99.99
2024-04-11T05:16:22.455Z,99.99
2024-04-11T05:17:22.118Z,99.99
2024-04-11T05:18:22.109Z,99.99
2024-04-11T05:19:21.875Z,99.99
2024-04-11T05:20:24.301Z,99.99
2024-04-11T05:21:22.040Z,99.99
2024-04-11T05:22:21.841Z,99.99
2024-04-11T05:23:21.917Z,99.99
2024-04-11T05:24:21.846Z,99.99
2024-04-11T05:25:21.819Z,99.99
2024-04-11T05:26:21.844Z,99.99
2024-04-11T05:27:21.868Z,99.99
2024-04-11T05:28:21.782Z,99.99
2024-04-11T05:29:21.783Z,99.99
2024-04-11T05:30:21.825Z,99.99
2024-04-11T05:31:21.828Z,99.99
2024-04-11T05:32:21.834Z,99.99
2024-04-11T05:33:21.875Z,99.99
2024-04-11T05:34:22.152Z,99.99
2024-04-11T05:35:21.749Z,99.99
2024-04-11T05:36:21.791Z,99.99
2024-04-11T05:37:21.691Z,99.99
2024-04-11T05:38:21.770Z,99.99
2024-04-11T05:39:21.984Z,99.99
2024-04-11T05:40:21.666Z,99.99
2024-04-11T05:41:21.747Z,99.99
2024-04-11T05:42:21.749Z,99.99
2024-04-11T05:43:29.075Z,99.99
2024-04-11T05:44:22.634Z,99.99
2024-04-11T05:45:21.593Z,99.99
2024-04-11T05:46:21.599Z,99.99
2024-04-11T05:47:21.711Z,99.99
2024-04-11T05:48:21.667Z,99.99
2024-04-11T05:49:21.693Z,99.99
2024-04-11T05:50:21.607Z,99.99
2024-04-11T05:51:21.524Z,99.30
2024-04-11T05:52:21.536Z,98.20
2024-04-11T05:53:21.595Z,99.07
2024-04-11T05:54:22.045Z,99.07
2024-04-11T05:55:21.497Z,99.80
2024-04-11T05:56:21.504Z,98.55
2024-04-11T05:57:21.466Z,98.72
2024-04-11T05:58:21.459Z,97.99
2024-04-11T05:59:21.521Z,97.47
2024-04-11T06:00:21.432Z,97.64
2024-04-11T06:01:21.524Z,99.15
2024-04-11T06:02:21.520Z,97.28
2024-04-11T06:03:21.569Z,97.55
2024-04-11T06:04:21.412Z,97.03
2024-04-11T06:05:21.397Z,96.05
2024-04-11T06:06:21.483Z,94.81
2024-04-11T06:07:21.353Z,95.22
2024-04-11T06:08:21.418Z,95.84
2024-04-11T06:09:21.337Z,95.95
2024-04-11T06:10:21.338Z,95.37
2024-04-11T06:11:21.464Z,95.68
2024-04-11T06:12:21.399Z,96.51
2024-04-11T06:13:21.353Z,97.17
2024-04-11T06:14:21.458Z,96.41
2024-04-11T06:15:21.270Z,96.88
2024-04-11T06:16:21.302Z,97.03
2024-04-11T06:17:21.257Z,96.61
2024-04-11T06:18:21.355Z,96.26
2024-04-11T06:19:21.234Z,94.91
2024-04-11T06:20:21.359Z,96.57
2024-04-11T06:21:21.248Z,94.97
2024-04-11T06:22:21.191Z,94.62
2024-04-11T06:23:21.315Z,96.79
2024-04-11T06:24:21.227Z,95.14
2024-04-11T06:25:21.189Z,94.98
2024-04-11T06:26:21.223Z,94.94
2024-04-11T06:27:21.141Z,95.04
2024-04-11T06:28:21.121Z,93.85
2024-04-11T06:29:21.245Z,94.41
2024-04-11T06:30:21.206Z,95.86
2024-04-11T06:31:21.105Z,96.06
2024-04-11T06:32:21.182Z,95.84
2024-04-11T06:33:21.252Z,95.90
2024-04-11T06:34:21.316Z,95.64
2024-04-11T06:35:21.118Z,96.88
2024-04-11T06:36:21.037Z,97.31
2024-04-11T06:37:21.029Z,97.78
2024-04-11T06:38:21.060Z,95.50
2024-04-11T06:39:21.051Z,96.08
2024-04-11T06:40:20.995Z,97.49
2024-04-11T06:41:21.104Z,96.24
2024-04-11T06:42:20.985Z,96.97
2024-04-11T06:43:20.971Z,95.78
2024-04-11T06:44:21.105Z,95.78
2024-04-11T06:45:20.974Z,95.17
2024-04-11T06:46:20.954Z,94.71
2024-04-11T06:47:27.903Z,94.40
2024-04-11T06:48:22.119Z,93.53
2024-04-11T06:49:21.022Z,92.89
2024-04-11T06:50:20.952Z,95.49
2024-04-11T06:51:20.955Z,94.04
2024-04-11T06:52:21.588Z,93.05
2024-04-11T06:53:20.857Z,93.37
2024-04-11T06:54:20.841Z,93.26
2024-04-11T06:55:20.842Z,93.57
2024-04-11T06:56:20.891Z,94.71
2024-04-11T06:57:20.804Z,93.98
2024-04-11T06:58:20.811Z,93.37
2024-04-11T06:59:20.900Z,94.25
2024-04-11T07:00:20.776Z,93.16
2024-04-11T07:02:20.951Z,93.26
2024-04-11T07:03:20.793Z,92.13
2024-04-11T07:04:20.748Z,92.99
2024-04-11T07:05:20.840Z,93.57
2024-04-11T07:06:20.709Z,93.01
2024-04-11T07:07:20.696Z,93.32
2024-04-11T07:08:20.734Z,93.01
2024-04-11T07:09:20.671Z,94.29
2024-04-11T07:10:20.679Z,93.73
2024-04-11T07:11:21.678Z,92.54
2024-04-11T07:12:20.641Z,95.45
2024-04-11T07:13:20.628Z,92.35
2024-04-11T07:14:20.645Z,92.35
2024-04-11T07:15:20.630Z,91.38
2024-04-11T07:16:20.613Z,94.31
2024-04-11T07:17:20.620Z,95.30
2024-04-11T07:18:20.702Z,96.23
2024-04-11T07:19:20.568Z,93.28
2024-04-11T07:20:20.580Z,93.71
2024-04-11T07:21:20.540Z,93.28
2024-04-11T07:22:20.536Z,95.40
2024-04-11T07:23:20.529Z,94.89
2024-04-11T07:24:20.521Z,94.21
2024-04-11T07:25:20.507Z,95.61
2024-04-11T07:26:20.530Z,94.00
2024-04-11T07:27:20.635Z,95.30
2024-04-11T07:28:20.463Z,96.49
2024-04-11T07:29:20.451Z,93.05
2024-04-11T07:30:20.445Z,92.99
2024-04-11T07:31:20.457Z,91.24
2024-04-11T07:32:20.484Z,92.78
2024-04-11T07:33:20.699Z,93.30
2024-04-11T07:34:20.402Z,92.84
2024-04-11T07:35:20.401Z,93.35
2024-04-11T07:36:20.393Z,92.84
2024-04-11T07:37:20.403Z,91.87
2024-04-11T07:38:20.408Z,91.93
2024-04-11T07:39:20.343Z,93.11
2024-04-11T07:40:20.353Z,93.06
2024-04-11T07:41:20.392Z,94.03
2024-04-11T07:42:20.579Z,92.65
2024-04-11T07:43:20.299Z,90.90
2024-04-11T07:44:20.440Z,91.83
2024-04-11T07:45:20.277Z,92.92
2024-04-11T07:46:20.355Z,94.40
2024-04-11T07:47:24.106Z,93.06
2024-04-11T07:48:21.305Z,93.31
2024-04-11T07:49:20.315Z,93.83
2024-04-11T07:50:20.325Z,92.14
2024-04-11T07:51:20.269Z,91.52
2024-04-11T07:52:20.285Z,92.86
2024-04-11T07:53:20.508Z,94.13
2024-04-11T07:54:26.087Z,95.21
2024-04-11T07:55:21.171Z,95.33
2024-04-11T07:56:20.185Z,93.79
2024-04-11T07:57:20.157Z,93.31
2024-04-11T07:58:20.155Z,95.43
2024-04-11T07:59:20.149Z,94.67
2024-04-11T08:00:20.970Z,93.79
2024-04-11T08:01:20.125Z,94.56
2024-04-11T08:02:20.560Z,93.33
2024-04-11T08:03:20.096Z,93.18
2024-04-11T08:04:20.155Z,92.92
2024-04-11T08:05:20.082Z,92.10
2024-04-11T08:06:23.084Z,96.17
2024-04-11T08:07:20.038Z,92.67
2024-04-11T08:08:20.061Z,92.97
2024-04-11T08:09:20.024Z,92.77
2024-04-11T08:10:20.023Z,92.71
2024-04-11T08:11:20.101Z,92.67
2024-04-11T08:12:19.983Z,92.52
2024-04-11T08:13:19.987Z,92.36
2024-04-11T08:14:19.978Z,92.97
2024-04-11T08:15:19.968Z,92.67
2024-04-11T08:16:19.940Z,92.05
2024-04-11T08:17:19.929Z,94.02
2024-04-11T08:18:20.042Z,91.80
2024-04-11T08:19:19.916Z,92.69
2024-04-11T08:20:19.911Z,92.73
2024-04-11T08:21:19.882Z,91.23
2024-04-11T08:22:19.875Z,90.30
2024-04-11T08:23:21.887Z,92.05
2024-04-11T08:24:19.864Z,92.20
2024-04-11T08:25:19.839Z,92.82
2024-04-11T08:26:19.850Z,96.33
2024-04-11T08:27:21.721Z,92.97
2024-04-11T08:28:19.808Z,92.10
2024-04-11T08:29:19.793Z,94.11
2024-04-11T08:30:19.823Z,95.34
2024-04-11T08:31:19.769Z,96.39
2024-04-11T08:32:19.785Z,92.01
2024-04-11T08:33:19.865Z,92.99
2024-04-11T08:34:19.784Z,92.01
2024-04-11T08:35:19.759Z,93.24
2024-04-11T08:36:19.733Z,94.07
2024-04-11T08:37:19.703Z,93.51
2024-04-11T08:38:19.724Z,92.60
2024-04-11T08:39:19.681Z,92.85
2024-04-11T08:40:19.681Z,95.68
2024-04-11T08:41:19.678Z,89.52
2024-04-11T08:42:19.655Z,94.40
2024-04-11T08:43:19.647Z,93.99
2024-04-11T08:44:19.671Z,92.76
2024-04-11T08:45:19.625Z,92.19
2024-04-11T08:46:19.629Z,93.01
2024-04-11T08:47:19.657Z,91.27
2024-04-11T08:48:19.746Z,91.06
2024-04-11T08:49:19.713Z,90.50
2024-04-11T08:50:19.806Z,92.61
2024-04-11T08:51:19.688Z,90.05
2024-04-11T08:52:19.561Z,92.51
2024-04-11T08:53:19.531Z,91.03
2024-04-11T08:54:19.573Z,89.75
2024-04-11T08:55:19.504Z,90.46
2024-04-11T08:56:19.519Z,90.97
2024-04-11T08:57:19.502Z,93.80
2024-04-11T08:58:19.472Z,93.30
2024-04-11T08:59:19.478Z,92.59
2024-04-11T09:00:19.485Z,92.22
2024-04-11T09:01:19.495Z,91.20
2024-04-11T09:02:19.524Z,93.86
2024-04-11T09:03:19.541Z,92.02
2024-04-11T09:04:19.762Z,90.79
2024-04-11T09:05:19.420Z,90.22
2024-04-11T09:06:19.423Z,90.73
2024-04-11T09:07:20.486Z,92.36
2024-04-11T09:08:19.375Z,93.90
2024-04-11T09:09:19.371Z,93.55
2024-04-11T09:10:19.347Z,92.68
2024-04-11T09:11:19.353Z,92.32
2024-04-11T09:12:19.375Z,91.82
2024-04-11T09:13:19.305Z,90.69
2024-04-11T09:14:19.327Z,90.54
2024-04-11T09:15:19.284Z,89.51
2024-04-11T09:16:19.344Z,90.07
2024-04-11T09:17:22.030Z,91.73
2024-04-11T09:18:19.466Z,93.69
2024-04-11T09:19:19.248Z,92.52
2024-04-11T09:20:19.254Z,87.35
2024-04-11T09:21:19.222Z,89.33
2024-04-11T09:22:19.212Z,90.50
2024-04-11T09:23:19.226Z,90.36
2024-04-11T09:24:19.639Z,90.56
2024-04-11T09:25:19.237Z,88.45
2024-04-11T09:26:19.201Z,89.00
2024-04-11T09:27:19.168Z,89.04
2024-04-11T09:28:19.148Z,91.87
2024-04-11T09:29:22.159Z,93.32
2024-04-11T09:30:19.127Z,90.54
2024-04-11T09:31:19.114Z,89.72
2024-04-11T09:32:19.140Z,91.73
2024-04-11T09:33:19.329Z,89.78
2024-04-11T09:34:19.112Z,90.70
2024-04-11T09:35:19.073Z,90.66
2024-04-11T09:36:19.081Z,89.74
2024-04-11T09:37:19.049Z,89.74
2024-04-11T09:38:19.058Z,88.92
2024-04-11T09:39:19.048Z,90.82
2024-04-11T09:40:19.039Z,89.39
2024-04-11T09:41:20.166Z,90.52
2024-04-11T09:42:19.005Z,89.59
2024-04-11T09:43:18.985Z,90.97
2024-04-11T09:44:19.018Z,89.70
2024-04-11T09:45:18.966Z,91.70
2024-04-11T09:46:18.946Z,88.02
2024-04-11T09:47:18.983Z,90.12
2024-04-11T09:48:18.999Z,89.41
2024-04-11T09:49:18.940Z,88.12
2024-04-11T09:50:18.937Z,88.23
2024-04-11T09:51:18.901Z,89.41
2024-04-11T09:52:18.887Z,91.61
2024-04-11T09:53:18.880Z,88.70
2024-04-11T09:54:18.867Z,87.92
2024-04-11T09:55:18.886Z,88.23
2024-04-11T09:56:18.883Z,88.76
2024-04-11T09:57:18.826Z,88.96
2024-04-11T09:58:18.826Z,84.47
2024-04-11T09:59:18.802Z,87.16
2024-04-11T10:00:18.805Z,86.90
2024-04-11T10:01:18.783Z,86.90
2024-04-11T10:02:18.810Z,87.00
2024-04-11T10:03:18.973Z,89.47
2024-04-11T10:04:18.798Z,90.14
2024-04-11T10:05:18.750Z,87.49
2024-04-11T10:06:18.736Z,89.49
2024-04-11T10:07:18.724Z,86.47
2024-04-11T10:08:18.855Z,88.06
2024-04-11T10:09:18.702Z,85.28
2024-04-11T10:10:18.700Z,87.88
2024-04-11T10:11:18.985Z,85.75
2024-04-11T10:12:18.692Z,87.57
2024-04-11T10:13:18.644Z,88.98
2024-04-11T10:14:18.658Z,84.22
2024-04-11T10:15:18.682Z,89.12
2024-04-11T10:16:18.631Z,86.16
2024-04-11T10:17:18.734Z,88.32
2024-04-11T10:18:19.332Z,85.30
2024-04-11T10:19:19.028Z,86.36
2024-04-11T10:20:18.607Z,86.53
2024-04-11T10:21:18.558Z,87.55
2024-04-11T10:22:18.546Z,85.82
2024-04-11T10:23:18.538Z,86.73
2024-04-11T10:24:18.541Z,87.59
2024-04-11T10:25:18.599Z,87.38
2024-04-11T10:26:18.527Z,88.00
2024-04-11T10:27:18.578Z,86.02
2024-04-11T10:28:18.482Z,87.70
2024-04-11T10:29:18.484Z,88.00
2024-04-11T10:30:18.552Z,85.69
2024-04-11T10:31:18.447Z,87.84
2024-04-11T10:32:18.486Z,87.65
2024-04-11T10:33:18.499Z,86.67
2024-04-11T10:34:18.429Z,85.45
2024-04-11T10:35:18.464Z,87.04
2024-04-11T10:36:18.392Z,87.92
2024-04-11T10:37:18.378Z,86.43
2024-04-11T10:38:18.385Z,88.37
2024-04-11T10:39:18.372Z,87.24
2024-04-11T10:40:18.358Z,86.29
2024-04-11T10:41:18.337Z,85.10
2024-04-11T10:42:18.338Z,87.45
2024-04-11T10:43:18.330Z,88.18
2024-04-11T10:44:18.319Z,84.04
2024-04-11T10:45:18.413Z,85.00
2024-04-11T10:46:18.340Z,87.45
2024-04-11T10:47:18.271Z,87.47
2024-04-11T10:48:18.359Z,86.71
2024-04-11T10:49:18.247Z,84.06
2024-04-11T10:50:18.272Z,85.60
2024-04-11T10:51:18.220Z,83.96
2024-04-11T10:52:18.217Z,86.47
2024-04-11T10:53:19.311Z,85.49
2024-04-11T10:54:18.206Z,83.90
2024-04-11T10:55:18.182Z,83.86
2024-04-11T10:56:18.220Z,85.25
2024-04-11T10:57:18.158Z,83.11
2024-04-11T10:58:18.160Z,85.60
2024-04-11T10:59:18.159Z,83.72
2024-04-11T11:00:18.138Z,85.35
2024-04-11T11:01:18.148Z,85.14
2024-04-11T11:02:18.137Z,83.21
2024-04-11T11:03:18.209Z,87.18
2024-04-11T11:04:18.120Z,85.00
2024-04-11T11:05:18.085Z,85.92
2024-04-11T11:06:18.064Z,82.35
2024-04-11T11:07:18.049Z,85.68
2024-04-11T11:08:18.076Z,83.60
2024-04-11T11:09:18.039Z,86.51
2024-04-11T11:10:18.080Z,81.33
2024-04-11T11:11:18.029Z,80.90
2024-04-11T11:12:18.295Z,82.56
2024-04-11T11:13:18.015Z,82.66
2024-04-11T11:14:18.016Z,84.29
2024-04-11T11:15:17.968Z,82.97
2024-04-11T11:16:18.029Z,82.05
2024-04-11T11:17:17.942Z,81.88
2024-04-11T11:18:18.002Z,85.11
2024-04-11T11:19:17.944Z,87.77
2024-04-11T11:20:17.929Z,81.67
2024-04-11T11:21:17.915Z,81.85
2024-04-11T11:22:17.887Z,85.43
2024-04-11T11:23:17.882Z,82.12
2024-04-11T11:24:17.909Z,82.99
2024-04-11T11:25:17.868Z,84.54
2024-04-11T11:26:17.858Z,81.56
2024-04-11T11:27:17.829Z,80.07
2024-04-11T11:28:17.822Z,80.51
2024-04-11T11:29:17.832Z,79.57
2024-04-11T11:30:18.396Z,81.60
2024-04-11T11:31:17.808Z,83.74
2024-04-11T11:32:17.799Z,81.60
2024-04-11T11:33:17.861Z,84.42
2024-04-11T11:34:17.878Z,82.45
2024-04-11T11:35:17.843Z,82.10
2024-04-11T11:36:17.742Z,79.90
2024-04-11T11:37:17.743Z,81.60
2024-04-11T11:38:17.729Z,81.60
2024-04-11T11:39:17.701Z,82.18
2024-04-11T11:40:17.691Z,82.34
2024-04-11T11:41:17.685Z,80.41
2024-04-11T11:42:19.580Z,81.19
2024-04-11T11:43:17.818Z,80.33
2024-04-11T11:44:17.674Z,79.29
2024-04-11T11:45:17.738Z,78.48
2024-04-11T11:46:17.689Z,80.07
2024-04-11T11:47:17.727Z,79.39
2024-04-11T11:48:17.685Z,79.63
2024-04-11T11:49:17.591Z,82.04
2024-04-11T11:50:17.615Z,80.17
2024-04-11T11:51:17.566Z,79.72
2024-04-11T11:52:17.570Z,79.42
2024-04-11T11:53:17.546Z,80.44
2024-04-11T11:54:17.531Z,80.84
2024-04-11T11:55:17.530Z,79.93
2024-04-11T11:56:17.544Z,79.02
2024-04-11T11:57:17.503Z,78.61
2024-04-11T11:58:17.491Z,77.63
2024-04-11T11:59:17.490Z,78.85
2024-04-11T12:00:17.477Z,80.21
2024-04-11T12:01:17.494Z,80.27
2024-04-11T12:02:17.534Z,80.71
2024-04-11T12:03:24.417Z,78.06
2024-04-11T12:04:18.505Z,80.66
2024-04-11T12:05:17.413Z,77.01
2024-04-11T12:06:17.411Z,78.37
2024-04-11T12:07:17.390Z,75.73
2024-04-11T12:08:17.396Z,76.72
2024-04-11T12:09:17.363Z,80.54
2024-04-11T12:10:17.368Z,79.90
2024-04-11T12:11:17.436Z,75.87
2024-04-11T12:12:17.354Z,76.34
2024-04-11T12:13:17.330Z,77.02
2024-04-11T12:14:17.342Z,78.81
2024-04-11T12:15:17.299Z,77.19
2024-04-11T12:16:18.201Z,76.14
2024-04-11T12:17:17.274Z,78.31
2024-04-11T12:18:17.437Z,79.39
2024-04-11T12:19:17.286Z,80.47
2024-04-11T12:20:17.285Z,77.63
2024-04-11T12:21:17.249Z,80.24
2024-04-11T12:22:17.229Z,77.80
2024-04-11T12:23:17.219Z,79.83
2024-04-11T12:24:17.215Z,77.29
2024-04-11T12:25:17.195Z,79.28
2024-04-11T12:26:17.240Z,79.65
2024-04-11T12:27:17.176Z,78.57
2024-04-11T12:28:17.160Z,78.74
2024-04-11T12:29:17.148Z,76.48
2024-04-11T12:30:17.134Z,78.20
2024-04-11T12:31:17.182Z,77.73
2024-04-11T12:32:17.170Z,77.39
2024-04-11T12:33:17.212Z,78.61
2024-04-11T12:34:17.145Z,78.51
2024-04-11T12:35:17.093Z,77.63
2024-04-11T12:36:17.093Z,79.52
2024-04-11T12:37:17.073Z,79.28
2024-04-11T12:38:17.065Z,80.06
2024-04-11T12:39:17.057Z,78.94
2024-04-11T12:40:18.585Z,79.25
2024-04-11T12:41:17.014Z,78.67
2024-04-11T12:42:17.016Z,78.98
2024-04-11T12:43:16.986Z,78.10
2024-04-11T12:44:16.990Z,78.71
2024-04-11T12:45:16.989Z,77.49
2024-04-11T12:46:16.958Z,80.40
2024-04-11T12:47:17.000Z,77.93
2024-04-11T12:48:17.015Z,78.23
2024-04-11T12:49:16.951Z,78.44
2024-04-11T12:50:16.933Z,79.04
2024-04-11T12:51:16.903Z,81.20
2024-04-11T12:52:16.905Z,76.94
2024-04-11T12:53:16.873Z,77.79